Time;durP1;ratioP1;P1;durP2;ratioP2;P2;SDS_P1;SDS_P2;PMS_P1;PMS_P2;Temp;Humidity;BMP_temperature;BMP_pressure;BME280_temperature;BME280_humidity;BME280_pressure;Samples;Min_cycle;Max_cycle;Signal;HPM_P1;HPM_P2
2023/08/25 00:02:22;;;;;;;6.30;3.80;;;;;;;19.81;100.00;100356.66;4972818;28;20050;-63
2023/08/25 00:04:49;;;;;;;6.28;3.42;;;;;;;19.74;100.00;100353.19;4972751;28;20042;-64
2023/08/25 00:07:16;;;;;;;12.05;3.70;;;;;;;19.71;100.00;100345.47;4972547;28;20043;-62
2023/08/25 00:09:46;;;;;;;8.25;3.45;;;;;;;19.71;100.00;100337.31;4972604;28;20065;-62
2023/08/25 00:12:12;;;;;;;7.45;3.40;;;;;;;19.69;100.00;100326.66;4972151;28;20062;-62
2023/08/25 00:14:39;;;;;;;10.75;3.58;;;;;;;19.61;100.00;100320.66;4972195;28;20121;-63
2023/08/25 00:17:08;;;;;;;6.25;3.67;;;;;;;19.68;100.00;100316.81;4972309;28;20120;-62
2023/08/25 00:19:35;;;;;;;7.00;3.70;;;;;;;19.70;100.00;100324.78;4972311;28;20093;-61
2023/08/25 00:22:02;;;;;;;5.15;3.25;;;;;;;19.53;100.00;100310.13;4972341;28;20054;-62
2023/08/25 00:24:32;;;;;;;8.18;3.05;;;;;;;19.61;100.00;100312.50;4972215;28;20121;-61
2023/08/25 00:26:59;;;;;;;12.13;3.65;;;;;;;19.54;100.00;100312.59;4972213;28;20576;-61
2023/08/25 00:29:25;;;;;;;8.23;3.53;;;;;;;19.44;100.00;100304.97;4972137;28;20058;-63
2023/08/25 00:31:52;;;;;;;7.40;3.63;;;;;;;19.50;100.00;100316.84;4972574;28;20047;-62
2023/08/25 00:34:18;;;;;;;7.57;3.08;;;;;;;19.45;100.00;100306.66;4972274;28;20109;-62
2023/08/25 00:36:45;;;;;;;6.07;3.10;;;;;;;19.31;100.00;100310.59;4971820;28;20098;-63
2023/08/25 00:39:12;;;;;;;4.93;3.63;;;;;;;19.28;100.00;100302.91;4971797;28;20093;-62
2023/08/25 00:41:39;;;;;;;12.70;3.75;;;;;;;19.25;100.00;100301.44;4971982;28;20137;-63
2023/08/25 00:44:05;;;;;;;12.68;3.58;;;;;;;19.14;100.00;100293.22;4971909;28;20071;-62
2023/08/25 00:46:32;;;;;;;10.75;3.67;;;;;;;19.30;100.00;100295.31;4971841;28;20074;-62
2023/08/25 00:49:00;;;;;;;7.13;3.67;;;;;;;19.16;100.00;100294.66;4971805;28;20046;-62
2023/08/25 00:51:27;;;;;;;7.85;3.97;;;;;;;19.18;100.00;100291.72;4971720;28;20486;-62
2023/08/25 00:53:54;;;;;;;8.95;3.70;;;;;;;19.11;100.00;100293.69;4971743;28;20570;-62
2023/08/25 00:56:22;;;;;;;14.00;3.88;;;;;;;19.25;100.00;100306.06;4955209;28;20482;-61
2023/08/25 00:58:50;;;;;;;15.30;4.53;;;;;;;19.27;100.00;100296.59;4971570;28;20101;-62
2023/08/25 01:01:17;;;;;;;12.10;4.40;;;;;;;19.24;100.00;100301.66;4971708;28;20163;-61
2023/08/25 01:03:48;;;;;;;7.70;4.00;;;;;;;19.16;100.00;100297.38;4971760;28;20058;-62
2023/08/25 01:09:50;;;;;;;9.43;3.80;;;;;;;19.24;100.00;100285.34;4973668;28;20051;-63
2023/08/25 01:12:27;;;;;;;8.90;4.07;;;;;;;19.28;100.00;100286.56;4974567;28;20042;-62
2023/08/25 01:14:58;;;;;;;8.60;4.53;;;;;;;19.32;100.00;100276.91;4974744;28;20129;-62
2023/08/25 01:17:48;;;;;;;9.45;4.07;;;;;;;19.23;100.00;100275.53;4974313;28;20049;-61
2023/08/25 01:20:15;;;;;;;14.85;4.00;;;;;;;19.25;100.00;100268.00;4974955;28;20392;-61
2023/08/25 01:23:10;;;;;;;9.63;4.13;;;;;;;19.09;100.00;100255.00;4974776;28;20083;-61
2023/08/25 01:25:38;;;;;;;5.38;3.65;;;;;;;19.06;100.00;100245.41;4974516;28;20061;-61
2023/08/25 01:28:05;;;;;;;12.15;3.72;;;;;;;19.08;100.00;100231.59;4974035;28;20102;-61
2023/08/25 01:30:34;;;;;;;5.68;3.60;;;;;;;18.98;100.00;100227.53;4973617;28;20507;-61
2023/08/25 01:33:04;;;;;;;13.35;3.70;;;;;;;19.02;100.00;100217.84;4975446;28;20055;-64
2023/08/25 01:35:34;;;;;;;13.73;3.83;;;;;;;19.13;100.00;100215.44;4974163;28;20066;-65
2023/08/25 01:38:14;;;;;;;7.65;3.60;;;;;;;19.04;100.00;100209.50;4975012;28;20466;-62
2023/08/25 01:40:44;;;;;;;17.92;3.40;;;;;;;19.12;100.00;100211.06;4973858;28;20054;-62
2023/08/25 01:43:16;;;;;;;6.17;3.53;;;;;;;19.01;100.00;100197.19;4974523;28;20415;-62
2023/08/25 01:45:43;;;;;;;6.32;3.63;;;;;;;19.02;100.00;100209.69;4974248;28;20294;-62
2023/08/25 01:48:12;;;;;;;6.28;3.33;;;;;;;19.01;100.00;100221.63;4973723;28;20495;-62
2023/08/25 01:50:40;;;;;;;6.70;3.78;;;;;;;19.13;100.00;100215.44;4974557;28;20046;-62
2023/08/25 01:53:08;;;;;;;11.35;4.20;;;;;;;19.04;100.00;100214.09;4973487;28;20051;-62
2023/08/25 01:55:35;;;;;;;10.25;4.13;;;;;;;18.91;100.00;100205.00;4974055;28;20070;-64
2023/08/25 01:58:02;;;;;;;7.45;3.78;;;;;;;18.90;100.00;100203.34;4973828;28;20150;-64
2023/08/25 02:00:30;;;;;;;7.95;3.83;;;;;;;19.01;100.00;100207.22;4974255;28;20051;-64
2023/08/25 02:02:58;;;;;;;8.82;4.30;;;;;;;18.82;100.00;100205.53;4974630;28;20043;-62
2023/08/25 02:05:25;;;;;;;7.93;3.88;;;;;;;18.76;100.00;100201.84;4974175;28;20100;-62
2023/08/25 02:07:51;;;;;;;10.68;3.90;;;;;;;18.99;100.00;100207.44;4973898;28;20051;-62
2023/08/25 02:10:18;;;;;;;6.85;3.90;;;;;;;19.01;100.00;100207.22;4973690;28;20043;-62
2023/08/25 02:12:45;;;;;;;6.88;4.18;;;;;;;19.02;100.00;100193.38;4973768;28;20070;-62
2023/08/25 02:15:11;;;;;;;7.43;4.28;;;;;;;19.04;100.00;100193.19;4974295;28;20039;-62
2023/08/25 02:17:40;;;;;;;6.07;3.85;;;;;;;18.99;100.00;100191.13;4973952;28;20114;-61
2023/08/25 02:20:07;;;;;;;8.80;4.53;;;;;;;18.90;100.00;100191.66;4973089;28;20047;-62
2023/08/25 02:22:34;;;;;;;15.10;5.28;;;;;;;18.91;100.00;100183.25;4973569;28;20051;-61
2023/08/25 02:25:01;;;;;;;7.50;4.93;;;;;;;19.12;100.00;100192.03;4973850;28;20415;-64
2023/08/25 02:27:28;;;;;;;10.27;3.80;;;;;;;19.10;100.00;100185.97;4974363;28;20054;-61
2023/08/25 02:29:54;;;;;;;9.52;3.80;;;;;;;19.11;100.00;100188.47;4973516;28;20117;-61
2023/08/25 02:32:21;;;;;;;8.93;4.18;;;;;;;19.15;100.00;100184.25;4972895;28;20575;-61
2023/08/25 02:34:47;;;;;;;6.28;4.00;;;;;;;19.07;100.00;100181.00;4973330;28;20061;-62
2023/08/25 02:37:14;;;;;;;6.22;3.63;;;;;;;19.13;100.00;100180.91;4973388;28;20067;-61
2023/08/25 02:39:40;;;;;;;8.82;4.22;;;;;;;19.24;100.00;100179.28;4972990;28;20418;-62
2023/08/25 02:42:07;;;;;;;7.15;4.25;;;;;;;19.24;100.00;100182.00;4973002;28;20506;-61
2023/08/25 02:44:34;;;;;;;9.10;4.40;;;;;;;19.19;100.00;100173.72;4972873;28;20081;-61
2023/08/25 02:47:01;;;;;;;8.60;4.00;;;;;;;19.10;100.00;100175.09;4973808;28;20644;-63
2023/08/25 02:49:28;;;;;;;5.30;4.10;;;;;;;19.11;100.00;100171.34;4973066;28;20097;-61
2023/08/25 02:51:56;;;;;;;13.40;4.15;;;;;;;19.02;100.00;100168.09;4972060;28;20043;-61
2023/08/25 02:54:25;;;;;;;11.10;4.95;;;;;;;18.93;100.00;100166.75;4972946;28;20049;-61
2023/08/25 02:56:53;;;;;;;12.50;4.63;;;;;;;18.92;100.00;100157.75;4973559;28;20047;-61
2023/08/25 02:59:20;;;;;;;16.58;4.90;;;;;;;18.87;100.00;100154.88;4972253;28;20051;-61
2023/08/25 03:01:48;;;;;;;8.27;4.38;;;;;;;18.66;100.00;100155.38;4972915;28;20085;-61
2023/08/25 03:04:14;;;;;;;10.73;4.50;;;;;;;18.72;100.00;100154.44;4972980;28;20047;-62
2023/08/25 03:06:41;;;;;;;9.77;4.53;;;;;;;18.72;100.00;100160.72;4972953;28;20579;-63
2023/08/25 03:09:07;;;;;;;10.55;4.40;;;;;;;18.80;100.00;100154.13;4972942;28;20462;-62
2023/08/25 03:11:34;;;;;;;6.45;4.10;;;;;;;18.59;100.00;100163.59;4972574;28;20055;-62
2023/08/25 03:14:00;;;;;;;12.88;4.80;;;;;;;18.63;100.00;100169.41;4973302;28;20138;-62
2023/08/25 03:16:27;;;;;;;8.10;5.00;;;;;;;18.57;100.00;100170.31;4972985;28;20070;-62
2023/08/25 03:18:54;;;;;;;9.20;4.43;;;;;;;18.50;100.00;100165.75;4972486;28;20125;-62
2023/08/25 03:21:20;;;;;;;6.60;3.95;;;;;;;18.59;100.00;100165.50;4972124;28;20066;-62
2023/08/25 03:23:47;;;;;;;8.43;4.47;;;;;;;18.60;100.00;100161.69;4972952;28;20105;-63
2023/08/25 03:26:14;;;;;;;12.07;4.60;;;;;;;18.72;100.00;100163.44;4972615;28;20074;-62
2023/08/25 03:28:41;;;;;;;6.15;4.45;;;;;;;18.60;100.00;100167.97;4972598;28;20113;-62
2023/08/25 03:31:07;;;;;;;9.38;4.63;;;;;;;18.68;100.00;100170.34;4971536;28;20050;-63
2023/08/25 03:33:34;;;;;;;9.80;4.90;;;;;;;18.63;100.00;100166.69;4972468;28;20047;-62
2023/08/25 03:36:00;;;;;;;11.38;5.10;;;;;;;18.50;100.00;100163.06;4972487;28;20407;-61
2023/08/25 03:38:27;;;;;;;9.35;4.32;;;;;;;18.52;100.00;100163.66;4972386;28;20050;-61
2023/08/25 03:41:00;;;;;;;8.10;4.50;;;;;;;18.48;100.00;100158.88;4971828;28;20545;-61
2023/08/25 03:43:26;;;;;;;9.18;4.53;;;;;;;18.46;100.00;100159.13;4972845;28;20414;-62
2023/08/25 03:45:53;;;;;;;8.93;4.32;;;;;;;18.48;100.00;100154.31;4971916;28;20466;-61
2023/08/25 03:48:20;;;;;;;7.28;4.38;;;;;;;18.48;100.00;100157.03;4972454;28;20105;-62
2023/08/25 03:50:47;;;;;;;11.00;5.07;;;;;;;18.45;100.00;100157.47;4972399;28;20051;-62
2023/08/25 03:53:15;;;;;;;10.73;5.15;;;;;;;18.39;100.00;100157.56;4971723;28;20105;-61
2023/08/25 03:55:41;;;;;;;8.90;4.50;;;;;;;18.38;100.00;100162.16;4972114;28;20054;-61
2023/08/25 03:58:08;;;;;;;10.95;5.05;;;;;;;18.61;100.00;100168.78;4971362;28;20466;-61
2023/08/25 04:00:34;;;;;;;9.95;4.72;;;;;;;18.44;100.00;100165.84;4970725;28;20113;-61
2023/08/25 04:03:04;;;;;;;9.48;4.60;;;;;;;18.48;100.00;100165.19;4972641;28;20094;-62
2023/08/25 04:05:31;;;;;;;14.18;4.80;;;;;;;18.62;100.00;100159.56;4972082;28;20046;-62
2023/08/25 04:07:58;;;;;;;9.07;5.03;;;;;;;18.53;100.00;100162.59;4972339;28;20046;-61
2023/08/25 04:10:25;;;;;;;9.88;5.35;;;;;;;18.52;100.00;100160.13;4971397;28;20466;-61
2023/08/25 04:12:52;;;;;;;11.50;5.40;;;;;;;18.53;100.00;100154.44;4971244;28;20046;-62
2023/08/25 04:15:20;;;;;;;8.00;4.57;;;;;;;18.52;100.00;100160.94;4971227;28;20101;-61
2023/08/25 04:17:48;;;;;;;7.90;4.95;;;;;;;18.73;100.00;100164.25;4971189;28;20054;-62
2023/08/25 04:20:15;;;;;;;12.00;4.90;;;;;;;18.76;100.00;100161.09;4971657;28;20051;-61
2023/08/25 04:22:42;;;;;;;8.75;4.53;;;;;;;18.71;100.00;100167.19;4971988;28;20565;-63
2023/08/25 04:25:09;;;;;;;9.95;4.97;;;;;;;18.64;100.00;100165.63;4971515;28;20050;-62
2023/08/25 04:27:36;;;;;;;10.93;5.07;;;;;;;18.56;100.00;100164.03;4971519;28;20474;-61
2023/08/25 04:30:03;;;;;;;14.05;4.68;;;;;;;18.48;100.00;100161.59;4971235;28;20133;-62
2023/08/25 04:32:30;;;;;;;6.57;4.80;;;;;;;18.40;100.00;100162.75;4971740;28;20051;-62
2023/08/25 04:34:57;;;;;;;15.20;4.82;;;;;;;18.35;100.00;100159.88;4971922;28;20038;-62
2023/08/25 04:37:23;;;;;;;12.63;5.63;;;;;;;18.27;100.00;100158.31;4971522;28;20105;-61
2023/08/25 04:39:50;;;;;;;16.38;4.78;;;;;;;18.40;100.00;100160.03;4970857;28;20050;-62
2023/08/25 04:42:16;;;;;;;10.23;4.50;;;;;;;18.44;100.00;100163.94;4971127;28;20050;-61
2023/08/25 04:44:43;;;;;;;12.15;5.50;;;;;;;18.33;100.00;100164.69;4971390;28;20109;-61
2023/08/25 04:47:10;;;;;;;14.20;5.15;;;;;;;18.37;100.00;100160.47;4971045;28;20463;-61
2023/08/25 04:49:36;;;;;;;8.85;4.80;;;;;;;18.40;100.00;100164.63;4971525;28;20057;-62
2023/08/25 04:52:03;;;;;;;11.63;5.40;;;;;;;18.28;100.00;100148.28;4970480;28;20491;-62
2023/08/25 04:54:30;;;;;;;10.40;4.80;;;;;;;18.18;100.00;100153.38;4971880;28;20462;-61
2023/08/25 04:56:57;;;;;;;11.48;4.93;;;;;;;18.28;100.00;100148.28;4971111;28;20057;-61
2023/08/25 04:59:24;;;;;;;6.78;3.97;;;;;;;18.45;100.00;100151.22;4970949;28;20074;-60
2023/08/25 05:01:51;;;;;;;10.20;5.10;;;;;;;18.53;100.00;100142.75;4970797;28;20105;-61
2023/08/25 05:04:17;;;;;;;10.98;5.72;;;;;;;18.48;100.00;100140.75;4970803;28;20047;-61
2023/08/25 05:06:44;;;;;;;11.02;5.10;;;;;;;18.47;100.00;100130.91;4970342;28;20050;-61
2023/08/25 05:09:11;;;;;;;11.63;5.40;;;;;;;18.49;100.00;100136.97;4971172;28;20104;-61
2023/08/25 05:11:39;;;;;;;13.18;5.75;;;;;;;18.34;100.00;100138.38;4969899;28;20066;-61
2023/08/25 05:14:06;;;;;;;12.98;6.63;;;;;;;18.34;100.00;100133.75;4970566;28;20046;-61
2023/08/25 05:16:33;;;;;;;11.38;5.53;;;;;;;18.38;100.00;100128.75;4970948;28;20043;-61
2023/08/25 05:19:00;;;;;;;12.82;5.32;;;;;;;18.31;100.00;100129.63;4971451;28;20051;-61
2023/08/25 05:21:26;;;;;;;13.20;6.32;;;;;;;18.30;100.00;100132.56;4970620;28;20054;-62
2023/08/25 05:24:16;;;;;;;14.23;5.68;;;;;;;18.46;100.00;100131.97;4970564;28;20081;-61
2023/08/25 05:26:44;;;;;;;11.50;5.90;;;;;;;18.63;100.00;100126.75;4970501;28;20098;-61
2023/08/25 05:29:10;;;;;;;12.25;5.55;;;;;;;18.62;100.00;100129.69;4953783;28;20055;-61
2023/08/25 05:31:37;;;;;;;12.25;6.00;;;;;;;18.46;100.00;100134.69;4970864;28;20058;-61
2023/08/25 05:34:03;;;;;;;21.45;6.70;;;;;;;18.57;100.00;100126.84;4969721;28;20043;-62
2023/08/25 05:36:30;;;;;;;12.20;6.30;;;;;;;18.45;100.00;100124.06;4971335;28;20047;-61
2023/08/25 05:38:57;;;;;;;18.67;6.57;;;;;;;18.25;100.00;100121.56;4970512;28;20054;-61
2023/08/25 05:41:24;;;;;;;10.32;6.25;;;;;;;18.33;100.00;100129.41;4970588;28;20380;-61
2023/08/25 05:43:50;;;;;;;13.07;5.72;;;;;;;18.42;100.00;100133.50;4970330;28;20055;-61
2023/08/25 05:46:17;;;;;;;14.68;5.85;;;;;;;18.25;100.00;100132.44;4969799;28;20129;-62
2023/08/25 05:48:44;;;;;;;15.10;6.38;;;;;;;18.31;100.00;100134.25;4971019;28;20097;-61
2023/08/25 05:51:11;;;;;;;15.93;6.60;;;;;;;18.39;100.00;100125.78;4969654;28;20491;-61
2023/08/25 05:53:37;;;;;;;17.17;5.80;;;;;;;18.40;100.00;100124.72;4970634;28;20078;-61
2023/08/25 05:56:04;;;;;;;14.82;7.25;;;;;;;18.46;100.00;100123.81;4973671;28;20114;-65
2023/08/25 05:58:31;;;;;;;18.20;6.35;;;;;;;18.63;100.00;100126.75;4974519;28;20400;-62
2023/08/25 06:00:58;;;;;;;9.95;5.93;;;;;;;18.52;100.00;100113.94;4973441;28;20101;-61
2023/08/25 06:03:25;;;;;;;16.02;6.45;;;;;;;18.53;100.00;100119.13;4973710;28;20439;-62
2023/08/25 06:05:53;;;;;;;14.65;6.20;;;;;;;18.64;100.00;100116.72;4974251;28;20109;-61
2023/08/25 06:08:20;;;;;;;14.13;6.40;;;;;;;18.74;100.00;100111.56;4974010;28;20492;-61
2023/08/25 06:10:47;;;;;;;13.63;6.85;;;;;;;18.79;100.00;100111.69;4972506;28;20411;-63
2023/08/25 06:13:14;;;;;;;9.95;5.93;;;;;;;18.67;100.00;100121.69;4973180;28;20051;-62
2023/08/25 06:15:41;;;;;;;11.20;5.40;;;;;;;18.70;100.00;100118.53;4972815;28;20110;-62
2023/08/25 06:18:08;;;;;;;8.40;5.43;;;;;;;18.92;100.00;100118.84;4972381;28;20050;-62
2023/08/25 06:20:35;;;;;;;15.57;6.22;;;;;;;18.97;100.00;100125.31;4972612;28;20081;-63
2023/08/25 06:23:02;;;;;;;12.25;5.80;;;;;;;18.91;100.00;100120.75;4974260;28;20050;-63
2023/08/25 06:25:29;;;;;;;11.98;5.03;;;;;;;18.89;100.00;100120.13;4972903;28;20110;-61
2023/08/25 06:27:55;;;;;;;10.75;5.95;;;;;;;19.11;100.00;100122.41;4972884;28;20051;-61
2023/08/25 06:30:22;;;;;;;13.15;5.80;;;;;;;19.41;100.00;100120.44;4973584;28;20059;-61
2023/08/25 06:32:48;;;;;;;15.15;6.95;;;;;;;19.48;100.00;100123.06;4973729;28;20418;-64
2023/08/25 06:35:15;;;;;;;16.15;5.65;;;;;;;19.37;100.00;100132.88;4973303;28;20454;-62
2023/08/25 06:37:41;;;;;;;15.63;5.95;;;;;;;19.57;100.00;100126.28;4973014;28;20055;-61
2023/08/25 06:40:08;;;;;;;13.32;5.32;;;;;;;19.72;100.00;100134.84;4971860;28;20057;-62
2023/08/25 06:42:35;;;;;;;12.60;5.72;;;;;;;19.83;100.00;100127.75;4972899;28;20499;-61
2023/08/25 06:45:01;;;;;;;17.80;5.57;;;;;;;19.88;100.00;100122.44;4973607;28;20050;-62
2023/08/25 06:47:28;;;;;;;13.05;5.45;;;;;;;20.07;100.00;100126.69;4973710;28;20055;-61
2023/08/25 06:49:55;;;;;;;11.10;5.85;;;;;;;20.25;100.00;100120.31;4972943;28;20050;-61
2023/08/25 06:52:22;;;;;;;10.57;5.25;;;;;;;20.50;100.00;100124.66;4971623;28;20046;-61
2023/08/25 06:54:49;;;;;;;13.20;5.05;;;;;;;20.62;100.00;100129.00;4972856;28;20101;-61
2023/08/25 06:57:15;;;;;;;8.75;4.40;;;;;;;20.72;100.00;100133.00;4972948;28;20050;-62
2023/08/25 06:59:42;;;;;;;10.27;4.40;;;;;;;20.91;100.00;100129.88;4972823;28;20404;-62
2023/08/25 07:02:08;;;;;;;18.38;4.88;;;;;;;21.08;100.00;100127.19;4972052;28;20118;-62
2023/08/25 07:04:36;;;;;;;7.70;4.95;;;;;;;21.35;100.00;100132.06;4972625;28;20094;-62
2023/08/25 07:07:02;;;;;;;10.00;4.93;;;;;;;21.84;100.00;100122.28;4971083;28;20051;-65
2023/08/25 07:09:29;;;;;;;14.88;7.10;;;;;;;21.92;100.00;100120.19;4973543;28;20125;-62
2023/08/25 07:11:56;;;;;;;7.75;4.57;;;;;;;22.13;100.00;100119.41;4972579;28;20058;-62
2023/08/25 07:14:23;;;;;;;9.93;4.75;;;;;;;22.49;100.00;100136.31;4971939;28;20074;-61
2023/08/25 07:16:50;;;;;;;7.97;4.28;;;;;;;22.56;100.00;100139.66;4971941;28;20051;-62
2023/08/25 07:19:16;;;;;;;10.02;4.90;;;;;;;22.64;100.00;100128.31;4972686;28;20491;-62
2023/08/25 07:21:43;;;;;;;8.27;4.30;;;;;;;22.56;100.00;100143.22;4972554;28;20438;-61
2023/08/25 07:24:10;;;;;;;6.15;3.78;;;;;;;23.01;100.00;100144.03;4972503;28;20058;-62
2023/08/25 07:26:36;;;;;;;9.30;3.90;;;;;;;23.21;100.00;100137.97;4971983;28;20110;-62
2023/08/25 07:29:03;;;;;;;14.10;4.60;;;;;;;23.76;98.99;100133.31;4971693;28;20114;-62
2023/08/25 07:31:30;;;;;;;9.07;4.53;;;;;;;24.41;91.82;100134.84;4973267;28;20051;-62
2023/08/25 07:33:58;;;;;;;9.60;4.13;;;;;;;24.76;84.99;100133.34;4971869;28;20455;-64
2023/08/25 07:36:24;;;;;;;11.90;4.05;;;;;;;25.46;78.21;100139.28;4972466;28;20466;-64
2023/08/25 07:38:51;;;;;;;10.27;4.05;;;;;;;25.28;76.64;100144.19;4971464;28;20101;-65
2023/08/25 07:41:21;;;;;;;10.73;4.30;;;;;;;25.80;73.11;100150.56;4971717;28;20101;-64
2023/08/25 07:43:48;;;;;;;11.10;3.95;;;;;;;25.91;71.04;100152.19;4971622;28;20055;-65
2023/08/25 07:46:15;;;;;;;6.30;3.70;;;;;;;26.33;68.17;100164.78;4971905;28;20463;-64
2023/08/25 07:48:42;;;;;;;9.82;4.07;;;;;;;26.74;65.05;100164.66;4971389;28;20141;-69
2023/08/25 07:51:08;;;;;;;13.23;3.85;;;;;;;26.61;63.54;100157.81;4971286;28;20039;-66
2023/08/25 07:53:35;;;;;;;6.80;3.72;;;;;;;26.48;64.53;100162.00;4971446;28;20046;-68
2023/08/25 07:56:03;;;;;;;12.52;3.90;;;;;;;26.45;66.00;100156.25;4972541;28;20047;-67
2023/08/25 07:58:29;;;;;;;10.88;3.83;;;;;;;26.70;62.82;100158.06;4971869;28;20422;-67
2023/08/25 08:00:56;;;;;;;19.20;4.38;;;;;;;26.43;62.91;100153.75;4971452;28;20512;-66
2023/08/25 08:03:23;;;;;;;12.13;3.88;;;;;;;26.80;61.85;100152.56;4971000;28;20051;-66
2023/08/25 08:05:50;;;;;;;5.80;3.53;;;;;;;27.54;57.32;100149.91;4971500;28;20059;-66
2023/08/25 08:08:17;;;;;;;4.47;3.05;;;;;;;27.55;57.19;100148.78;4970503;28;20130;-66
2023/08/25 08:10:43;;;;;;;8.48;3.70;;;;;;;27.15;58.14;100153.47;4969756;28;20133;-66
2023/08/25 08:13:10;;;;;;;7.95;3.55;;;;;;;27.46;57.35;100160.44;4970312;28;20050;-67
2023/08/25 08:15:38;;;;;;;8.77;3.53;;;;;;;27.66;56.18;100164.13;4969172;28;20055;-67
2023/08/25 08:18:04;;;;;;;11.13;3.63;;;;;;;28.17;53.91;100163.69;4971327;28;20047;-66
2023/08/25 08:20:33;;;;;;;9.63;3.50;;;;;;;27.71;55.10;100156.66;4971699;28;20050;-67
2023/08/25 08:23:00;;;;;;;10.07;3.78;;;;;;;27.79;54.41;100152.44;4971749;28;20053;-66
2023/08/25 08:25:29;;;;;;;11.75;4.13;;;;;;;27.96;53.79;100155.63;4970522;28;20495;-67
2023/08/25 08:27:56;;;;;;;10.10;4.43;;;;;;;28.62;52.63;100154.09;4971623;28;20047;-66
2023/08/25 08:30:22;;;;;;;11.45;5.10;;;;;;;28.64;52.13;100156.56;4970545;28;20101;-66
2023/08/25 08:32:49;;;;;;;10.85;4.22;;;;;;;28.79;51.11;100167.41;4971397;28;20060;-66
2023/08/25 08:35:17;;;;;;;12.18;4.53;;;;;;;29.31;49.10;100168.38;4971442;28;20051;-66
2023/08/25 08:37:44;;;;;;;11.60;4.00;;;;;;;29.31;48.89;100167.56;4972067;28;20051;-66
2023/08/25 08:40:11;;;;;;;9.20;4.15;;;;;;;29.80;47.03;100164.28;4972180;28;20055;-69
2023/08/25 08:42:39;;;;;;;7.38;3.47;;;;;;;29.51;48.14;100170.03;4972060;28;20110;-67
2023/08/25 08:45:08;;;;;;;10.82;3.78;;;;;;;29.52;48.39;100176.38;4971692;28;20462;-67
2023/08/25 08:47:36;;;;;;;8.25;3.97;;;;;;;30.37;46.42;100174.38;4971662;28;20054;-66
2023/08/25 08:50:06;;;;;;;6.72;3.80;;;;;;;30.48;45.31;100176.63;4972207;28;20521;-69
2023/08/25 08:52:33;;;;;;;9.93;3.87;;;;;;;30.34;47.02;100174.97;4971485;28;20058;-69
2023/08/25 08:55:00;;;;;;;8.05;3.42;;;;;;;31.90;42.98;100170.97;4971765;28;20345;-67
2023/08/25 08:57:28;;;;;;;13.82;3.28;;;;;;;32.44;41.51;100171.72;4970941;28;20404;-66
2023/08/25 08:59:58;;;;;;;11.75;3.72;;;;;;;33.24;39.32;100175.25;4971432;28;20376;-66
2023/08/25 09:02:30;;;;;;;9.82;3.05;;;;;;;33.05;39.79;100175.53;4971495;28;20125;-66
2023/08/25 09:04:59;;;;;;;8.13;3.33;;;;;;;33.21;38.66;100177.88;4971128;28;20194;-66
2023/08/25 09:07:31;;;;;;;7.80;3.60;;;;;;;32.92;38.86;100179.25;4971559;28;20062;-63
2023/08/25 09:09:59;;;;;;;10.98;3.03;;;;;;;33.32;38.27;100182.75;4972129;28;20053;-65
2023/08/25 09:12:26;;;;;;;6.47;2.80;;;;;;;33.83;37.19;100181.13;4971346;28;20054;-67
2023/08/25 09:14:52;;;;;;;6.05;3.10;;;;;;;33.66;37.11;100174.75;4971578;28;20498;-64
2023/08/25 09:17:19;;;;;;;6.47;2.85;;;;;;;33.88;36.61;100173.72;4971349;28;20467;-67
2023/08/25 09:19:46;;;;;;;8.40;3.08;;;;;;;33.50;37.33;100186.38;4971441;28;20059;-66
2023/08/25 09:22:16;;;;;;;4.55;2.72;;;;;;;32.40;38.91;100185.44;4971009;28;20125;-66
2023/08/25 09:24:43;;;;;;;8.48;3.28;;;;;;;32.63;39.09;100194.53;4971792;28;20561;-64
2023/08/25 09:27:23;;;;;;;5.72;2.70;;;;;;;32.28;39.23;100190.78;4954156;28;20050;-64
2023/08/25 09:30:04;;;;;;;12.73;3.03;;;;;;;32.19;39.80;100189.91;4972665;28;20105;-66
2023/08/25 09:32:31;;;;;;;;;;;;;;;32.69;38.97;100191.63;4976014;28;20051;-67
2023/08/25 09:35:10;;;;;;;7.22;2.85;;;;;;;32.62;38.93;100184.59;4975723;28;19929;-66
2023/08/25 09:37:40;;;;;;;8.32;3.03;;;;;;;31.87;40.59;100194.59;4974879;28;20050;-64
2023/08/25 09:40:19;;;;;;;7.32;2.92;;;;;;;31.90;40.70;100195.94;4974864;28;20097;-65
2023/08/25 09:42:46;;;;;;;10.85;3.30;;;;;;;31.93;40.78;100192.53;4975252;28;20101;-64
2023/08/25 09:45:13;;;;;;;7.80;3.40;;;;;;;31.69;40.07;100195.63;4958159;28;20101;-66
2023/08/25 09:47:41;;;;;;;9.88;3.40;;;;;;;31.73;40.86;100186.34;4975094;28;20105;-67
2023/08/25 09:50:15;;;;;;;11.52;3.40;;;;;;;31.87;40.62;100191.03;4974648;28;20042;-66
2023/08/25 09:52:44;;;;;;;9.90;3.65;;;;;;;32.89;38.58;100193.78;4975038;28;20078;-65
2023/08/25 09:55:14;;;;;;;13.48;3.53;;;;;;;32.42;40.06;100194.28;4974856;28;20074;-66
2023/08/25 09:57:45;;;;;;;15.85;4.03;;;;;;;30.85;42.37;100205.25;4975384;28;20061;-67
2023/08/25 10:00:12;;;;;;;8.43;3.13;;;;;;;29.96;43.49;100208.28;4974818;28;20106;-64
2023/08/25 10:02:39;;;;;;;7.18;3.35;;;;;;;30.12;44.31;100212.47;4974885;28;20487;-65
2023/08/25 10:05:08;;;;;;;9.38;3.28;;;;;;;29.84;45.50;100220.66;4974520;28;20050;-66
2023/08/25 10:07:35;;;;;;;8.93;3.58;;;;;;;28.91;48.03;100214.75;4973750;28;20060;-66
2023/08/25 10:10:02;;;;;;;8.02;3.60;;;;;;;28.38;50.58;100217.53;4974688;28;20051;-68
2023/08/25 10:12:31;;;;;;;7.32;3.05;;;;;;;28.16;50.25;100212.50;4974886;28;20042;-66
2023/08/25 10:14:59;;;;;;;13.98;3.67;;;;;;;28.85;49.25;100210.41;4974840;28;20043;-69
2023/08/25 10:17:27;;;;;;;7.90;3.70;;;;;;;28.26;50.19;100217.13;4974433;28;20109;-68
2023/08/25 10:19:57;;;;;;;10.90;3.80;;;;;;;27.69;51.71;100208.47;4974358;28;20053;-67
2023/08/25 10:22:25;;;;;;;10.93;3.55;;;;;;;28.06;51.95;100209.03;4973889;28;20491;-65
2023/08/25 10:24:59;;;;;;;7.50;3.45;;;;;;;27.63;53.40;100215.16;4972413;28;20105;-68
2023/08/25 10:27:28;;;;;;;11.13;3.80;;;;;;;26.77;57.11;100213.66;4974378;28;20066;-66
2023/08/25 10:29:57;;;;;;;9.13;3.38;;;;;;;26.28;61.02;100206.06;4974010;28;20046;-66
2023/08/25 10:32:23;;;;;;;9.60;3.47;;;;;;;26.42;62.64;100218.13;4974638;28;20054;-64
2023/08/25 10:34:53;;;;;;;10.13;3.53;;;;;;;26.42;63.13;100211.81;4974333;28;20053;-67
2023/08/25 10:37:30;;;;;;;10.80;3.88;;;;;;;25.94;65.14;100214.03;4973761;28;20059;-67
2023/08/25 10:40:07;;;;;;;7.80;3.70;;;;;;;25.88;67.29;100217.88;4974127;28;20054;-67
2023/08/25 10:42:34;;;;;;;14.95;4.07;;;;;;;25.44;69.84;100221.91;4974062;28;20050;-67
2023/08/25 10:45:06;;;;;;;5.68;3.30;;;;;;;25.58;70.60;100231.28;4974583;28;20463;-67
2023/08/25 10:47:41;;;;;;;11.18;3.42;;;;;;;25.83;69.50;100232.44;4974206;28;20047;-66
2023/08/25 10:50:08;;;;;;;8.10;3.35;;;;;;;25.57;72.84;100226.06;4973644;28;20046;-66
2023/08/25 10:52:41;;;;;;;8.95;3.25;;;;;;;25.63;72.14;100221.44;4973418;28;20102;-66
2023/08/25 10:55:28;;;;;;;10.15;4.20;;;;;;;25.49;73.74;100227.44;4973822;28;20097;-66
2023/08/25 10:58:03;;;;;;;8.32;3.80;;;;;;;25.19;77.44;100224.59;4973603;28;20039;-66
2023/08/25 11:00:43;;;;;;;6.88;3.60;;;;;;;25.00;79.98;100222.34;4973213;28;20050;-66
2023/08/25 11:03:10;;;;;;;12.82;3.80;;;;;;;25.15;80.07;100225.13;4973524;28;20039;-65
2023/08/25 11:05:43;;;;;;;9.60;3.97;;;;;;;25.35;78.22;100224.38;4973098;28;20046;-67
2023/08/25 11:08:24;;;;;;;8.60;3.53;;;;;;;25.21;78.57;100223.25;4973192;28;20050;-64
2023/08/25 11:11:12;;;;;;;6.43;3.42;;;;;;;25.04;84.11;100230.88;4972608;28;20078;-65
2023/08/25 11:13:40;;;;;;;6.00;3.60;;;;;;;25.19;80.47;100228.16;4972866;28;20047;-63
2023/08/25 11:16:12;;;;;;;9.13;3.60;;;;;;;25.24;81.52;100230.94;4972825;28;20047;-66
2023/08/25 11:18:41;;;;;;;7.95;3.42;;;;;;;25.75;76.12;100233.78;4972896;28;20047;-65
2023/08/25 11:21:08;;;;;;;11.88;5.53;;;;;;;26.12;74.88;100229.97;4972782;28;20047;-66
2023/08/25 11:23:43;;;;;;;10.10;3.10;;;;;;;26.00;73.27;100234.94;4973297;28;20050;-64
2023/08/25 11:26:15;;;;;;;12.25;3.55;;;;;;;26.46;70.31;100230.22;4972771;28;20042;-65